createdAt,value
2023-03-06T07:15:43.227Z,4.07
2023-03-06T07:18:12.201Z,1.88
2023-03-06T07:20:40.681Z,2.60
2023-03-06T07:23:12.676Z,2.00
2023-03-06T07:25:41.615Z,2.85
2023-03-06T07:28:10.420Z,4.32
2023-03-06T07:30:41.298Z,3.25
2023-03-06T07:33:16.453Z,1.65
2023-03-06T07:35:46.211Z,2.70
2023-03-06T07:38:15.503Z,2.90
2023-03-06T07:40:44.123Z,3.05
2023-03-06T07:43:19.106Z,4.63
2023-03-06T07:45:48.265Z,4.28
2023-03-06T07:48:18.263Z,4.18
2023-03-06T07:50:55.521Z,3.13
2023-03-06T07:53:24.838Z,2.35
2023-03-06T07:55:53.829Z,4.68
2023-03-06T07:58:22.638Z,3.45
2023-03-06T08:00:51.236Z,3.38
2023-03-06T08:03:21.648Z,1.35
2023-03-06T08:05:50.381Z,6.32
2023-03-06T08:08:18.897Z,1.42
2023-03-06T08:10:50.180Z,2.40
2023-03-06T08:13:18.783Z,4.63
2023-03-06T08:15:50.508Z,6.88
2023-03-06T08:18:21.017Z,3.75
2023-03-06T08:20:50.724Z,2.25
2023-03-06T08:23:19.615Z,3.30
2023-03-06T08:25:49.224Z,3.08
2023-03-06T08:28:17.762Z,2.60
2023-03-06T08:30:46.288Z,3.38
2023-03-06T08:33:14.990Z,0.88
2023-03-06T08:35:45.005Z,1.85
2023-03-06T08:38:13.829Z,3.13
2023-03-06T08:40:42.869Z,1.35
2023-03-06T08:43:14.188Z,2.70
2023-03-06T08:45:43.013Z,4.00
2023-03-06T08:48:11.588Z,2.03
2023-03-06T08:50:44.296Z,3.80
2023-03-06T08:53:13.292Z,3.85
2023-03-06T08:55:42.327Z,9.77
2023-03-06T08:58:11.068Z,1.77
2023-03-06T09:00:40.313Z,1.83
2023-03-06T09:03:11.754Z,3.38
2023-03-06T09:05:44.793Z,7.30
2023-03-06T09:08:13.637Z,2.75
2023-03-06T09:10:46.472Z,6.45
2023-03-06T09:13:15.339Z,5.45
2023-03-06T09:15:44.252Z,4.70
2023-03-06T09:18:12.852Z,4.40
2023-03-06T09:20:41.424Z,4.18
2023-03-06T09:23:12.268Z,3.92
2023-03-06T09:25:40.862Z,2.47
2023-03-06T09:28:11.892Z,4.85
2023-03-06T09:30:42.353Z,3.15
2023-03-06T09:33:11.193Z,4.70
2023-03-06T09:35:45.786Z,3.83
2023-03-06T09:38:16.140Z,10.40
2023-03-06T09:41:00.814Z,5.57
2023-03-06T09:43:35.488Z,2.45
2023-03-06T09:46:17.882Z,3.25
2023-03-06T09:49:01.593Z,3.30
2023-03-06T09:51:42.751Z,3.28
2023-03-06T09:54:16.169Z,7.05
2023-03-06T09:56:52.231Z,8.77
2023-03-06T09:59:23.972Z,1.08
2023-03-06T10:02:02.602Z,4.85
2023-03-06T10:04:39.459Z,3.72
2023-03-06T10:07:16.860Z,3.90
2023-03-06T10:09:53.865Z,2.08
2023-03-06T10:12:28.504Z,2.67
2023-03-06T10:15:18.164Z,3.00
2023-03-06T10:17:47.233Z,4.30
2023-03-06T10:20:22.679Z,1.45
2023-03-06T10:23:12.054Z,4.38
2023-03-06T10:25:51.802Z,3.75
2023-03-06T10:28:25.661Z,2.25
2023-03-06T10:31:02.002Z,5.15
2023-03-06T10:33:45.822Z,1.45
2023-03-06T10:36:19.937Z,5.55
2023-03-06T10:38:50.444Z,3.83
2023-03-06T10:41:27.577Z,4.65
2023-03-06T10:44:26.152Z,4.32
2023-03-06T10:46:56.876Z,4.03
2023-03-06T10:49:33.988Z,4.82
2023-03-06T10:52:06.845Z,4.25
2023-03-06T10:54:37.831Z,5.63
2023-03-06T10:57:27.173Z,3.13
2023-03-06T10:59:58.081Z,4.10
2023-03-06T11:02:31.841Z,2.25
2023-03-06T11:05:03.661Z,4.53
2023-03-06T11:07:34.196Z,5.80
2023-03-06T11:10:18.054Z,3.75
2023-03-06T11:12:59.844Z,4.75
2023-03-06T11:15:29.973Z,1.02
2023-03-06T11:18:03.795Z,1.60
2023-03-06T11:20:50.883Z,1.73
2023-03-06T11:23:30.383Z,2.22
2023-03-06T11:26:04.948Z,4.65
2023-03-06T11:28:41.621Z,6.30
2023-03-06T11:31:17.088Z,3.17
2023-03-06T11:33:52.705Z,5.20
2023-03-06T11:36:31.543Z,4.68
2023-03-06T11:39:00.456Z,4.25
2023-03-06T11:41:46.024Z,3.25
2023-03-06T11:44:25.870Z,5.80
2023-03-06T11:47:08.776Z,3.65
2023-03-06T11:49:45.614Z,3.22
2023-03-06T11:52:24.243Z,4.55
2023-03-06T11:54:57.586Z,2.70
2023-03-06T11:57:34.499Z,5.63
2023-03-06T12:00:30.845Z,4.68
2023-03-06T12:06:07.377Z,3.03
2023-03-06T12:08:58.680Z,6.30
2023-03-06T12:11:36.904Z,3.80
2023-03-06T12:14:30.620Z,4.65
2023-03-06T12:17:17.578Z,1.80
2023-03-06T12:20:21.091Z,6.70
2023-03-06T12:22:57.839Z,6.65
2023-03-06T12:28:32.282Z,4.68
2023-03-06T12:31:36.569Z,4.82
2023-03-06T12:34:25.472Z,6.28
2023-03-06T12:37:12.495Z,3.53
2023-03-06T12:39:58.045Z,7.28
2023-03-06T12:42:48.346Z,5.55
2023-03-06T12:45:33.557Z,6.10
2023-03-06T12:48:03.571Z,5.00
2023-03-06T12:50:37.319Z,4.63
2023-03-06T12:53:15.368Z,2.70
2023-03-06T12:55:48.043Z,4.55
2023-03-06T12:58:37.205Z,6.10
2023-03-06T13:01:15.062Z,4.97
2023-03-06T13:04:06.228Z,6.25
2023-03-06T13:07:03.143Z,5.78
2023-03-06T13:09:37.506Z,4.22
2023-03-06T13:12:26.863Z,5.68
2023-03-06T13:15:01.860Z,5.05
2023-03-06T13:17:37.163Z,5.13
2023-03-06T13:23:51.855Z,4.75
2023-03-06T13:27:00.641Z,8.55
2023-03-06T13:30:52.633Z,6.32
2023-03-06T13:34:01.834Z,7.80
2023-03-06T13:36:32.774Z,7.65
2023-03-06T13:39:10.216Z,8.50
2023-03-06T13:42:02.751Z,9.68
2023-03-06T13:44:53.229Z,11.18
2023-03-06T13:48:09.733Z,8.10
2023-03-06T13:50:43.515Z,11.63
2023-03-06T13:53:54.997Z,10.88
2023-03-06T13:57:22.736Z,9.30
2023-03-06T14:00:22.223Z,11.43
2023-03-06T14:03:27.526Z,8.70
2023-03-06T14:05:56.235Z,10.48
2023-03-06T14:08:28.990Z,12.27
2023-03-06T14:11:04.961Z,15.32
2023-03-06T14:13:47.218Z,12.15
2023-03-06T14:16:22.608Z,11.80
2023-03-06T14:18:54.760Z,9.60
2023-03-06T14:21:31.557Z,11.88
2023-03-06T14:24:01.907Z,12.85
2023-03-06T14:26:33.963Z,12.13
2023-03-06T14:29:04.938Z,8.70
2023-03-06T14:31:37.652Z,9.50
2023-03-06T14:34:08.283Z,9.35
2023-03-06T14:36:44.678Z,8.65
2023-03-06T14:39:16.761Z,14.25
2023-03-06T14:41:45.659Z,13.75
2023-03-06T14:44:22.633Z,10.20
2023-03-06T14:46:53.070Z,7.85
2023-03-06T14:49:23.852Z,7.88
2023-03-06T14:51:54.959Z,7.38
2023-03-06T14:54:28.653Z,8.48
2023-03-06T14:57:03.322Z,10.48
2023-03-06T14:59:46.166Z,7.38
2023-03-06T15:02:21.960Z,12.63
2023-03-06T15:04:55.449Z,9.23
2023-03-06T15:07:27.935Z,9.20
2023-03-06T15:09:57.427Z,9.43
2023-03-06T15:12:46.517Z,8.13
2023-03-06T15:15:32.828Z,8.32
2023-03-06T15:18:01.616Z,7.38
2023-03-06T15:20:53.149Z,9.02
2023-03-06T15:23:26.557Z,7.93
2023-03-06T15:25:59.637Z,10.50
2023-03-06T15:28:35.361Z,10.38
2023-03-06T15:31:22.275Z,13.43
2023-03-06T15:34:26.223Z,11.70
2023-03-06T15:36:57.187Z,12.48
2023-03-06T15:39:38.844Z,13.23
2023-03-06T15:42:20.685Z,14.43
2023-03-06T15:44:53.226Z,12.90
2023-03-06T15:47:27.773Z,13.07
2023-03-06T15:49:56.980Z,11.00
2023-03-06T15:52:25.580Z,16.20
2023-03-06T15:54:54.310Z,14.68
2023-03-06T15:57:28.416Z,13.50
2023-03-06T15:59:58.795Z,13.55
2023-03-06T16:02:31.166Z,14.80
2023-03-06T16:05:06.914Z,14.57
2023-03-06T16:07:38.146Z,14.20
2023-03-06T16:10:08.018Z,13.70
2023-03-06T16:12:43.051Z,12.02
2023-03-06T16:15:24.766Z,20.00
2023-03-06T16:17:58.851Z,17.23
2023-03-06T16:20:29.436Z,16.70
2023-03-06T16:23:00.723Z,18.73
2023-03-06T16:25:31.077Z,20.08
2023-03-06T16:28:03.478Z,16.45
2023-03-06T16:30:38.538Z,16.23
2023-03-06T16:33:10.771Z,16.80
2023-03-06T16:35:41.841Z,22.10
2023-03-06T16:38:11.974Z,13.98
2023-03-06T16:40:42.638Z,12.80
2023-03-06T16:43:13.548Z,10.65
2023-03-06T16:45:43.745Z,13.73
2023-03-06T16:48:19.048Z,11.75
2023-03-06T16:53:16.715Z,14.75
2023-03-06T16:55:47.058Z,13.32
2023-03-06T16:58:15.842Z,12.55
2023-03-06T17:00:44.563Z,13.43
2023-03-06T17:03:12.975Z,16.05
2023-03-06T17:05:44.178Z,19.80
2023-03-06T17:08:16.405Z,25.17
2023-03-06T17:10:50.124Z,22.67
2023-03-06T17:13:22.161Z,22.88
2023-03-06T17:16:48.100Z,22.55
2023-03-06T17:19:37.733Z,23.42
2023-03-06T17:22:16.009Z,27.00
2023-03-06T17:24:44.574Z,32.67
2023-03-06T17:30:02.552Z,26.45
2023-03-06T17:32:34.107Z,27.23
2023-03-06T17:35:03.131Z,29.98
2023-03-06T17:37:34.087Z,28.40
2023-03-06T17:40:02.796Z,27.00
2023-03-06T17:42:33.457Z,25.77
2023-03-06T17:45:02.217Z,30.98
2023-03-06T17:47:30.820Z,28.98
2023-03-06T17:49:59.310Z,30.77
2023-03-06T17:52:31.402Z,31.65
2023-03-06T17:55:01.603Z,31.40
2023-03-06T17:57:43.477Z,29.77
2023-03-06T18:00:16.933Z,34.22
2023-03-06T18:02:45.487Z,35.40
2023-03-06T18:05:14.026Z,35.03
2023-03-06T18:07:44.901Z,34.60
2023-03-06T18:10:22.062Z,36.58
2023-03-06T18:12:50.633Z,38.40
2023-03-06T18:15:19.757Z,36.83
2023-03-06T18:17:48.424Z,42.47
2023-03-06T18:20:17.310Z,40.97
2023-03-06T18:22:45.684Z,41.28
2023-03-06T18:25:15.725Z,42.10
2023-03-06T18:27:44.598Z,39.08
2023-03-06T18:30:14.611Z,47.03
2023-03-06T18:32:43.184Z,49.60
2023-03-06T18:35:12.249Z,47.45
2023-03-06T18:37:40.769Z,48.83
2023-03-06T18:40:11.399Z,47.88
2023-03-06T18:42:41.624Z,49.67
2023-03-06T18:45:11.865Z,48.30
2023-03-06T18:47:40.607Z,48.78
2023-03-06T18:50:16.543Z,51.33
2023-03-06T18:52:45.763Z,54.20
2023-03-06T18:55:14.517Z,51.65
2023-03-06T18:57:44.437Z,51.40
2023-03-06T19:00:14.529Z,54.50
2023-03-06T19:02:43.825Z,59.95
2023-03-06T19:05:12.515Z,53.60
2023-03-06T19:07:41.613Z,51.08
2023-03-06T19:10:12.863Z,56.00
2023-03-06T19:12:41.537Z,55.70
2023-03-06T19:15:12.075Z,59.50
2023-03-06T19:17:40.652Z,55.65
2023-03-06T19:20:11.313Z,58.40
2023-03-06T19:22:40.117Z,59.88
2023-03-06T19:25:10.504Z,59.40
2023-03-06T19:27:39.486Z,55.88
2023-03-06T19:30:12.704Z,58.28
2023-03-06T19:32:41.826Z,62.35
2023-03-06T19:35:11.174Z,60.75
2023-03-06T19:37:39.994Z,60.42
2023-03-06T19:40:10.806Z,61.97
2023-03-06T19:42:47.239Z,58.05
2023-03-06T19:45:17.338Z,65.35
2023-03-06T19:47:47.333Z,61.38
2023-03-06T19:50:15.833Z,64.50
2023-03-06T19:52:44.711Z,66.18
2023-03-06T19:55:13.188Z,62.42
2023-03-06T19:57:41.867Z,65.18
2023-03-06T20:00:13.115Z,56.10
2023-03-06T20:02:43.014Z,61.58
2023-03-06T20:05:14.581Z,62.92
2023-03-06T20:07:43.102Z,60.42
2023-03-06T20:10:13.013Z,61.47
2023-03-06T20:12:41.753Z,70.55
2023-03-06T20:15:13.840Z,69.03
2023-03-06T20:17:43.747Z,61.55
2023-03-06T20:20:14.379Z,63.65
2023-03-06T20:22:43.097Z,61.83
2023-03-06T20:25:13.195Z,61.45
2023-03-06T20:27:41.657Z,62.97
2023-03-06T20:30:12.918Z,61.10
2023-03-06T20:32:41.680Z,62.22
2023-03-06T20:35:12.735Z,60.38
2023-03-06T20:37:41.424Z,67.05
2023-03-06T20:40:13.291Z,62.55
2023-03-06T20:42:41.799Z,63.05
2023-03-06T20:45:11.613Z,63.28
2023-03-06T20:47:47.520Z,60.55
2023-03-06T20:50:36.073Z,54.25
2023-03-06T20:53:23.216Z,54.78
2023-03-06T20:55:52.424Z,57.40
2023-03-06T20:58:23.569Z,54.33
2023-03-06T21:00:52.120Z,55.63
2023-03-06T21:03:20.903Z,62.17
2023-03-06T21:05:50.972Z,58.22
2023-03-06T21:08:19.561Z,61.40
2023-03-06T21:10:48.429Z,64.43
2023-03-06T21:13:17.304Z,61.83
2023-03-06T21:15:48.923Z,63.83
2023-03-06T21:18:18.144Z,62.47
2023-03-06T21:20:46.733Z,64.75
2023-03-06T21:23:16.768Z,54.00
2023-03-06T21:25:49.487Z,50.80
2023-03-06T21:28:19.341Z,45.75
2023-03-06T21:30:48.380Z,42.22
2023-03-06T21:33:16.954Z,37.28
2023-03-06T21:35:47.094Z,38.88
2023-03-06T21:38:16.953Z,36.35
2023-03-06T21:40:46.583Z,41.67
2023-03-06T21:43:15.746Z,31.60
2023-03-06T21:45:46.150Z,28.83
2023-03-06T21:48:15.899Z,20.92
2023-03-06T21:50:44.491Z,19.48
2023-03-06T21:53:12.921Z,14.45
2023-03-06T21:55:43.102Z,15.60
2023-03-06T21:58:11.485Z,14.32
2023-03-06T22:00:40.710Z,22.60
2023-03-06T22:03:09.333Z,13.68
2023-03-06T22:05:37.779Z,13.05
2023-03-06T22:08:06.431Z,12.50
2023-03-06T22:10:35.086Z,14.10
2023-03-06T22:13:05.172Z,13.73
2023-03-06T22:15:36.288Z,19.70
2023-03-06T22:18:23.460Z,15.43
2023-03-06T22:21:12.454Z,15.32
2023-03-06T22:24:00.836Z,10.20
2023-03-06T22:26:48.449Z,15.15
2023-03-06T22:29:37.396Z,10.20
2023-03-06T22:32:24.699Z,14.00
2023-03-06T22:35:11.914Z,17.25
2023-03-06T22:38:02.704Z,19.80
2023-03-06T22:40:50.082Z,14.93
2023-03-06T22:43:38.202Z,18.05
2023-03-06T22:46:27.736Z,22.80
2023-03-06T22:49:17.839Z,16.92
2023-03-06T22:52:05.021Z,18.92
2023-03-06T22:54:52.330Z,14.63
2023-03-06T22:57:39.351Z,15.18
2023-03-06T23:00:11.079Z,14.48
2023-03-06T23:02:59.811Z,13.02
2023-03-06T23:05:47.128Z,12.27
2023-03-06T23:08:34.052Z,8.70
2023-03-06T23:11:02.532Z,12.63
2023-03-06T23:13:49.821Z,14.57
2023-03-06T23:16:37.841Z,8.38
2023-03-06T23:19:26.722Z,9.32
2023-03-06T23:22:14.422Z,15.95
2023-03-06T23:25:01.663Z,9.82
2023-03-06T23:27:48.762Z,16.10
2023-03-06T23:30:18.075Z,10.23
2023-03-06T23:32:46.527Z,9.40
2023-03-06T23:35:16.597Z,13.68
2023-03-06T23:37:45.071Z,19.95
2023-03-06T23:40:17.517Z,13.18
2023-03-06T23:42:47.862Z,15.25
2023-03-06T23:45:16.782Z,11.57
2023-03-06T23:47:46.453Z,22.25
2023-03-06T23:50:16.787Z,14.82
2023-03-06T23:52:45.713Z,13.40
2023-03-06T23:55:14.445Z,20.73
2023-03-06T23:57:43.171Z,14.32
